Smyrna, Tennessee
Current Conditions -  °F | °C
As of 7:53 AM on Wednesday 28 Jan 2015 (Local Time) from KBNA Reporting Station
Few Clouds Few Clouds  
Wind Chill: 24°   Ceiling: Unl
Heat Index: 32°   Visibility: 10mi
Dew Point: 19°   Wind: 9mph
Humidity: 59%   Direction: 80°E
Pressure: 30.34"   Gusts: NA
Location:  35.97°N, 86.51°W
Report Text: KBNA 281353Z 08008KT 10SM FEW022 00/M07 A3034 RMK AO2 SLP277 T00001072
Loading
Personal Weather Stations






























Interactive Weather Map New forecast layout! Learn more

10-Day Weather Forecast

Advertisements
Track Severe Weather on mobile